Time;durP1;ratioP1;P1;durP2;ratioP2;P2;SDS_P1;SDS_P2;PMS_P1;PMS_P2;Temp;Humidity;BMP_temperature;BMP_pressure;BME280_temperature;BME280_humidity;BME280_pressure;Samples;Min_cycle;Max_cycle;Signal;HPM_P1;HPM_P2
2021/05/23 00:00:30;;;;;;;5.43;4.17;;;10.50;99.90;;;;;;5074148;28;20223;-64
2021/05/23 00:03:00;;;;;;;5.27;4.80;;;10.50;99.90;;;;;;5068132;28;20546;-64
2021/05/23 00:05:29;;;;;;;5.40;5.00;;;10.40;99.90;;;;;;5054382;28;20189;-64
2021/05/23 00:08:20;;;;;;;4.60;4.20;;;10.30;99.90;;;;;;5059377;28;20214;-64
2021/05/23 00:10:58;;;;;;;4.23;3.93;;;10.20;99.90;;;;;;5074174;28;20170;-63
2021/05/23 00:13:27;;;;;;;4.57;4.10;;;10.20;99.90;;;;;;5065189;28;20586;-64
2021/05/23 00:15:57;;;;;;;4.53;4.13;;;10.20;99.90;;;;;;5054210;28;20285;-62
2021/05/23 00:18:24;;;;;;;5.27;4.80;;;10.10;99.90;;;;;;5043941;28;20256;-64
2021/05/23 00:20:50;;;;;;;5.73;4.20;;;10.20;99.90;;;;;;5073915;28;20514;-64
2021/05/23 00:23:16;;;;;;;5.33;4.33;;;10.10;99.90;;;;;;5067179;28;20731;-65
2021/05/23 00:25:42;;;;;;;7.93;4.27;;;10.10;99.90;;;;;;5054027;28;20175;-64
2021/05/23 00:28:09;;;;;;;4.90;4.50;;;10.00;99.90;;;;;;5058489;28;20209;-63
2021/05/23 00:30:36;;;;;;;4.90;4.20;;;10.00;99.90;;;;;;5073658;28;20185;-64
2021/05/23 00:33:03;;;;;;;6.30;4.43;;;9.90;99.90;;;;;;5070189;28;20197;-63
2021/05/23 00:35:29;;;;;;;4.07;3.87;;;9.90;99.90;;;;;;5053815;28;20171;-64
2021/05/23 00:37:55;;;;;;;5.37;4.50;;;9.80;99.90;;;;;;5037903;28;20199;-64
2021/05/23 00:40:21;;;;;;;4.87;4.50;;;9.70;99.90;;;;;;5073413;28;20187;-64
2021/05/23 00:42:47;;;;;;;4.40;4.10;;;9.70;99.90;;;;;;5073033;28;20669;-64
2021/05/23 00:45:15;;;;;;;4.80;4.40;;;9.60;99.90;;;;;;5053879;28;20175;-63
2021/05/23 00:47:42;;;;;;;7.40;4.23;;;9.60;99.90;;;;;;5053416;28;20206;-64
2021/05/23 00:50:10;;;;;;;5.17;4.10;;;9.60;99.90;;;;;;5072307;28;20193;-64
2021/05/23 00:52:36;;;;;;;5.03;4.27;;;9.70;99.90;;;;;;5073502;28;20181;-64
2021/05/23 00:55:03;;;;;;;4.93;4.40;;;9.70;99.90;;;;;;5056356;28;20175;-64
2021/05/23 00:57:29;;;;;;;5.33;4.23;;;9.70;99.90;;;;;;5073315;28;20197;-64
2021/05/23 00:59:55;;;;;;;4.43;4.13;;;9.60;99.90;;;;;;5056440;28;20175;-65
2021/05/23 01:02:45;;;;;;;4.30;3.90;;;9.70;99.90;;;;;;5061138;28;20213;-64
2021/05/23 01:05:17;;;;;;;4.33;3.83;;;9.60;99.90;;;;;;5073293;28;20188;-64
2021/05/23 01:07:43;;;;;;;4.53;3.80;;;9.50;99.90;;;;;;5062281;28;20206;-64
2021/05/23 01:10:14;;;;;;;4.40;3.83;;;9.40;99.90;;;;;;5052852;28;20231;-63
2021/05/23 01:12:52;;;;;;;4.33;4.00;;;9.50;99.90;;;;;;5062203;28;20172;-64
2021/05/23 01:15:30;;;;;;;4.07;3.77;;;9.50;99.90;;;;;;5072912;28;20162;-64
2021/05/23 01:18:01;;;;;;;4.40;4.00;;;9.50;99.90;;;;;;5061213;28;20778;-64
2021/05/23 01:20:40;;;;;;;4.50;4.20;;;9.50;99.90;;;;;;5052693;28;20194;-63
2021/05/23 01:23:20;;;;;;;4.00;3.70;;;9.50;99.90;;;;;;5064974;28;20182;-64
2021/05/23 01:25:48;;;;;;;4.80;4.13;;;9.50;99.90;;;;;;5072929;28;20265;-64
2021/05/23 01:28:16;;;;;;;5.10;3.93;;;9.60;99.90;;;;;;5059668;28;20217;-65
2021/05/23 01:30:46;;;;;;;5.67;4.30;;;9.60;99.90;;;;;;5052428;28;20171;-63
2021/05/23 01:33:14;;;;;;;5.17;4.43;;;9.60;99.90;;;;;;5046801;28;20316;-64
2021/05/23 01:35:42;;;;;;;5.30;4.77;;;9.60;99.90;;;;;;5072669;28;20284;-64
2021/05/23 01:38:13;;;;;;;6.37;4.60;;;9.60;99.90;;;;;;5061344;28;20296;-64
2021/05/23 01:40:39;;;;;;;4.67;4.33;;;9.60;99.90;;;;;;5052355;28;20170;-64
2021/05/23 01:43:07;;;;;;;5.40;4.60;;;9.60;99.90;;;;;;5061983;28;20213;-66
2021/05/23 01:45:33;;;;;;;4.57;4.17;;;9.80;99.90;;;;;;5071133;28;20174;-64
2021/05/23 01:48:01;;;;;;;5.10;3.80;;;9.80;99.90;;;;;;5068216;28;20276;-62
2021/05/23 01:50:27;;;;;;;4.17;3.77;;;9.80;99.90;;;;;;5071929;28;20164;-65
2021/05/23 01:52:55;;;;;;;4.30;3.90;;;9.90;99.90;;;;;;5061413;28;20709;-63
2021/05/23 01:55:22;;;;;;;4.17;3.87;;;10.00;99.90;;;;;;5052318;28;20171;-64
2021/05/23 01:57:47;;;;;;;6.47;4.30;;;10.10;99.90;;;;;;5061455;28;20608;-63
2021/05/23 02:00:16;;;;;;;4.23;3.83;;;10.10;99.90;;;;;;5071710;28;20166;-64
2021/05/23 02:02:42;;;;;;;4.40;4.10;;;10.20;99.90;;;;;;5063569;28;20649;-63
2021/05/23 02:05:09;;;;;;;5.20;4.80;;;10.20;99.90;;;;;;5052214;28;20178;-63
2021/05/23 02:07:35;;;;;;;4.33;4.03;;;10.20;99.90;;;;;;5058295;28;20212;-63
2021/05/23 02:10:06;;;;;;;4.47;3.90;;;10.30;99.90;;;;;;5071757;28;20166;-63
2021/05/23 02:12:33;;;;;;;5.13;4.00;;;10.30;99.90;;;;;;5066143;28;20171;-64
2021/05/23 02:15:04;;;;;;;4.53;4.23;;;10.30;99.90;;;;;;5052284;28;20202;-64
2021/05/23 02:17:34;;;;;;;4.20;3.93;;;10.30;99.90;;;;;;5052804;28;20260;-64
2021/05/23 02:20:00;;;;;;;4.27;3.90;;;10.40;99.90;;;;;;5050432;28;20262;-64
2021/05/23 02:22:25;;;;;;;4.27;3.90;;;10.40;99.90;;;;;;5055321;28;20268;-63
2021/05/23 02:24:51;;;;;;;4.17;3.87;;;10.30;99.90;;;;;;5071904;28;20174;-64
2021/05/23 02:27:17;;;;;;;4.53;4.23;;;10.30;99.90;;;;;;5069388;28;20178;-63
2021/05/23 02:29:42;;;;;;;5.33;4.90;;;10.30;99.90;;;;;;5051575;28;20538;-63
2021/05/23 02:32:08;;;;;;;5.27;4.93;;;10.30;99.90;;;;;;5051581;28;20169;-64
2021/05/23 02:34:44;;;;;;;4.90;4.60;;;10.10;99.90;;;;;;5053683;28;20181;-64
2021/05/23 02:37:09;;;;;;;5.37;4.87;;;10.10;99.90;;;;;;5071387;28;20162;-64
2021/05/23 02:39:35;;;;;;;6.07;5.47;;;10.00;99.90;;;;;;5051639;28;20173;-63
2021/05/23 02:42:01;;;;;;;6.00;5.53;;;9.90;99.90;;;;;;5051406;28;20532;-64
2021/05/23 02:44:26;;;;;;;7.77;7.17;;;9.80;99.90;;;;;;5069466;28;20658;-64
2021/05/23 02:46:52;;;;;;;10.33;7.37;;;9.90;99.90;;;;;;5071682;28;20169;-64
2021/05/23 02:49:17;;;;;;;9.30;8.40;;;9.80;99.90;;;;;;5054759;28;20214;-64
2021/05/23 02:51:43;;;;;;;11.13;9.60;;;9.80;99.90;;;;;;5051319;28;20185;-64
2021/05/23 02:54:09;;;;;;;11.00;10.10;;;9.80;99.90;;;;;;5065939;28;20170;-64
2021/05/23 02:56:35;;;;;;;12.60;9.90;;;9.80;99.90;;;;;;5071433;28;20643;-64
2021/05/23 02:59:02;;;;;;;12.20;9.53;;;9.70;99.90;;;;;;5058175;28;20285;-64
2021/05/23 03:01:27;;;;;;;9.73;8.73;;;9.70;99.90;;;;;;5051059;28;20170;-63
2021/05/23 03:03:53;;;;;;;11.43;10.50;;;9.80;99.90;;;;;;5062724;28;20227;-64
2021/05/23 03:06:19;;;;;;;12.90;9.77;;;9.70;99.90;;;;;;5071239;28;20203;-62
2021/05/23 03:08:45;;;;;;;13.10;10.67;;;9.60;99.90;;;;;;5061387;28;20241;-63
2021/05/23 03:11:10;;;;;;;12.10;9.87;;;9.60;99.90;;;;;;5051090;28;20640;-65
2021/05/23 03:13:36;;;;;;;12.60;10.33;;;9.60;99.90;;;;;;5059004;28;20182;-64
2021/05/23 03:16:02;;;;;;;15.90;11.83;;;9.60;99.90;;;;;;5071413;28;20257;-64
2021/05/23 03:18:27;;;;;;;13.63;12.33;;;9.60;99.90;;;;;;5065669;28;20289;-64
2021/05/23 03:20:53;;;;;;;14.60;12.50;;;9.60;99.90;;;;;;5054975;28;20177;-64
2021/05/23 03:23:19;;;;;;;16.07;13.33;;;9.60;99.90;;;;;;5059772;28;20280;-65
2021/05/23 03:25:44;;;;;;;15.30;12.17;;;9.60;99.90;;;;;;5075439;28;20202;-64
2021/05/23 03:28:10;;;;;;;16.70;11.80;;;9.80;99.90;;;;;;5072028;28;20542;-63
2021/05/23 03:30:41;;;;;;;9.33;8.43;;;9.70;99.90;;;;;;5054720;28;20175;-63
2021/05/23 03:33:07;;;;;;;10.63;9.60;;;9.70;99.90;;;;;;5056679;28;20194;-65
2021/05/23 03:35:34;;;;;;;17.43;9.60;;;9.70;99.90;;;;;;5074999;28;20190;-63
2021/05/23 03:38:00;;;;;;;9.60;8.63;;;9.70;99.90;;;;;;5074486;28;20244;-65
2021/05/23 03:40:26;;;;;;;9.37;8.53;;;9.70;99.90;;;;;;5054253;28;20536;-64
2021/05/23 03:42:52;;;;;;;9.57;7.63;;;9.70;99.90;;;;;;5054898;28;20224;-63
2021/05/23 03:45:20;;;;;;;8.87;7.80;;;9.70;99.90;;;;;;5073377;28;20655;-65
2021/05/23 03:47:47;;;;;;;9.27;7.53;;;9.70;99.90;;;;;;5061628;28;20213;-64
2021/05/23 03:50:18;;;;;;;8.70;7.40;;;9.70;99.90;;;;;;5054392;28;20171;-64
2021/05/23 03:52:44;;;;;;;7.83;7.10;;;9.60;99.90;;;;;;5066555;28;20513;-63
2021/05/23 03:55:10;;;;;;;9.27;7.33;;;9.70;99.90;;;;;;5074632;28;20169;-64
2021/05/23 03:57:36;;;;;;;7.90;7.20;;;9.70;99.90;;;;;;5063959;28;20194;-64
2021/05/23 04:00:07;;;;;;;8.83;6.97;;;9.70;99.90;;;;;;5054350;28;20174;-64
2021/05/23 04:02:32;;;;;;;9.73;7.57;;;9.70;99.90;;;;;;5063397;28;20174;-62
2021/05/23 04:04:58;;;;;;;8.03;7.30;;;9.80;99.90;;;;;;5074519;28;20174;-64
2021/05/23 04:07:26;;;;;;;8.87;8.27;;;9.80;99.90;;;;;;5066458;28;20214;-64
2021/05/23 04:09:53;;;;;;;9.20;8.07;;;9.70;99.90;;;;;;5054245;28;20692;-62
2021/05/23 04:12:26;;;;;;;8.60;7.80;;;9.80;99.90;;;;;;5060170;28;20174;-63
2021/05/23 04:14:52;;;;;;;12.03;9.07;;;9.80;99.90;;;;;;5074343;28;20525;-63
2021/05/23 04:17:17;;;;;;;11.67;8.70;;;9.80;99.90;;;;;;5068288;28;20178;-63
2021/05/23 04:19:43;;;;;;;9.77;8.97;;;9.90;99.90;;;;;;5054384;28;20170;-63
2021/05/23 04:22:10;;;;;;;10.80;8.63;;;9.80;99.90;;;;;;5057682;28;20178;-63
2021/05/23 04:24:37;;;;;;;9.07;8.23;;;9.90;99.90;;;;;;5073972;28;20195;-63
2021/05/23 04:27:03;;;;;;;9.60;8.33;;;9.90;99.90;;;;;;5053488;28;20179;-63
2021/05/23 04:29:30;;;;;;;8.93;8.13;;;9.90;99.90;;;;;;5058506;28;20178;-64
2021/05/23 04:31:56;;;;;;;8.77;7.83;;;9.90;99.90;;;;;;5072304;28;20176;-63
2021/05/23 04:34:22;;;;;;;8.50;7.70;;;9.90;99.90;;;;;;5069917;28;20182;-64
2021/05/23 04:36:47;;;;;;;7.63;7.03;;;9.90;99.90;;;;;;5074006;28;20212;-63
2021/05/23 04:39:13;;;;;;;7.83;7.23;;;9.80;99.90;;;;;;5054246;28;20207;-63
2021/05/23 04:41:38;;;;;;;8.00;7.17;;;9.90;99.90;;;;;;5053487;28;20256;-63
2021/05/23 04:44:07;;;;;;;15.13;10.83;;;9.80;99.90;;;;;;5071251;28;20643;-63
2021/05/23 04:46:32;;;;;;;13.37;11.17;;;9.80;99.90;;;;;;5073592;28;20162;-63
2021/05/23 04:48:58;;;;;;;11.70;10.57;;;9.70;99.90;;;;;;5057189;28;20213;-62
2021/05/23 04:51:24;;;;;;;13.07;11.03;;;9.70;99.90;;;;;;5053384;28;20201;-64
2021/05/23 04:53:50;;;;;;;10.40;8.60;;;9.80;99.90;;;;;;5067913;28;20215;-63
2021/05/23 04:56:15;;;;;;;14.03;8.73;;;9.60;99.90;;;;;;5055356;28;20644;-64
2021/05/23 04:58:41;;;;;;;12.40;8.07;;;9.50;99.90;;;;;;5060583;28;20209;-63
2021/05/23 05:01:06;;;;;;;8.13;6.67;;;9.50;99.90;;;;;;5053165;28;20224;-63
2021/05/23 05:03:32;;;;;;;7.97;7.07;;;9.30;99.90;;;;;;5064024;28;20663;-63
2021/05/23 05:05:58;;;;;;;7.20;6.40;;;9.40;99.90;;;;;;5073436;28;20174;-63
2021/05/23 05:08:23;;;;;;;7.00;6.50;;;9.30;99.90;;;;;;5063580;28;20606;-63
2021/05/23 05:10:49;;;;;;;8.33;7.10;;;9.30;99.90;;;;;;5052849;28;20171;-63
2021/05/23 05:13:14;;;;;;;12.60;7.07;;;9.40;99.90;;;;;;5060521;28;20249;-63
2021/05/23 05:15:40;;;;;;;9.67;7.60;;;9.30;99.90;;;;;;5073122;28;20178;-63
2021/05/23 05:18:06;;;;;;;10.60;8.10;;;9.30;99.90;;;;;;5067121;28;20214;-63
2021/05/23 05:20:31;;;;;;;13.53;8.47;;;9.30;99.90;;;;;;5034650;28;20175;-62
2021/05/23 05:22:57;;;;;;;10.03;7.90;;;9.30;99.90;;;;;;5056727;28;20580;-63
2021/05/23 05:25:23;;;;;;;8.17;7.33;;;9.30;99.90;;;;;;5072886;28;20174;-63
2021/05/23 05:27:48;;;;;;;7.53;6.77;;;9.30;99.90;;;;;;5070352;28;20236;-64
2021/05/23 05:30:15;;;;;;;9.23;6.33;;;9.30;99.90;;;;;;5052591;28;20212;-63
2021/05/23 05:32:40;;;;;;;7.93;7.10;;;9.20;99.90;;;;;;5053021;28;20178;-64
2021/05/23 05:35:06;;;;;;;12.27;7.37;;;9.30;99.90;;;;;;5072759;28;20174;-63
2021/05/23 05:37:32;;;;;;;13.87;8.17;;;9.20;99.90;;;;;;5072542;28;20190;-63
2021/05/23 05:39:58;;;;;;;10.57;8.10;;;9.20;99.90;;;;;;5053424;28;20182;-63
2021/05/23 05:42:23;;;;;;;12.20;9.00;;;9.30;99.90;;;;;;5053588;28;20190;-64
2021/05/23 05:44:49;;;;;;;9.70;8.77;;;9.40;99.90;;;;;;5055224;28;20548;-64
2021/05/23 05:47:15;;;;;;;17.00;12.23;;;9.50;99.90;;;;;;5063102;28;20208;-64
2021/05/23 05:49:40;;;;;;;19.67;11.77;;;9.50;99.90;;;;;;5072188;28;20175;-61
2021/05/23 05:52:06;;;;;;;15.30;12.40;;;9.60;99.90;;;;;;5062776;28;20194;-62
2021/05/23 05:54:32;;;;;;;10.87;8.30;;;9.70;99.90;;;;;;5051931;28;20166;-63
2021/05/23 05:57:00;;;;;;;14.23;8.00;;;9.70;99.90;;;;;;5059768;28;20166;-62
2021/05/23 05:59:26;;;;;;;15.50;8.27;;;9.70;99.90;;;;;;5072136;28;20192;-64
2021/05/23 06:01:52;;;;;;;7.93;7.30;;;9.70;99.90;;;;;;5065497;28;20269;-63
2021/05/23 06:04:17;;;;;;;12.03;7.50;;;9.90;99.90;;;;;;5051941;28;20819;-64
2021/05/23 06:06:43;;;;;;;11.70;8.43;;;9.90;99.90;;;;;;5038378;28;20170;-64
2021/05/23 06:09:09;;;;;;;11.57;7.03;;;10.00;99.90;;;;;;5071814;28;20212;-63
2021/05/23 06:11:35;;;;;;;8.57;6.67;;;10.00;99.90;;;;;;5068517;28;20232;-63
2021/05/23 06:14:00;;;;;;;8.10;6.83;;;9.90;99.90;;;;;;5052058;28;20256;-63
2021/05/23 06:16:26;;;;;;;9.00;6.60;;;10.10;99.90;;;;;;5052370;28;20262;-63
2021/05/23 06:18:51;;;;;;;13.10;6.23;;;10.00;99.90;;;;;;5051950;28;20313;-64
2021/05/23 06:21:17;;;;;;;9.40;7.50;;;10.10;99.90;;;;;;5051493;28;20170;-64
2021/05/23 06:23:43;;;;;;;9.57;6.80;;;10.20;99.90;;;;;;5070784;28;20244;-63
2021/05/23 06:26:13;;;;;;;7.77;7.03;;;10.10;99.90;;;;;;5054015;28;20177;-63
2021/05/23 06:28:42;;;;;;;8.27;6.47;;;10.30;99.90;;;;;;5056668;28;20199;-63
2021/05/23 06:31:08;;;;;;;12.83;5.87;;;10.30;99.90;;;;;;5064587;28;20235;-63
2021/05/23 06:33:34;;;;;;;7.97;6.17;;;10.40;99.90;;;;;;5071568;28;20181;-64
2021/05/23 06:36:00;;;;;;;9.80;6.77;;;10.50;99.90;;;;;;5060155;28;20174;-64
2021/05/23 06:38:25;;;;;;;6.33;5.83;;;10.60;99.90;;;;;;5051275;28;20198;-64
2021/05/23 06:40:51;;;;;;;9.50;6.97;;;10.60;99.90;;;;;;5060642;28;20178;-64
2021/05/23 06:43:16;;;;;;;9.40;6.90;;;10.60;99.90;;;;;;5071107;28;20170;-64
2021/05/23 06:45:42;;;;;;;6.93;5.93;;;10.60;99.90;;;;;;5063289;28;20178;-65
2021/05/23 06:48:09;;;;;;;7.67;6.23;;;10.60;99.90;;;;;;5051087;28;20222;-63
2021/05/23 06:50:35;;;;;;;9.60;6.47;;;10.70;99.90;;;;;;5056890;28;20592;-64
2021/05/23 06:53:01;;;;;;;8.63;6.23;;;11.20;99.90;;;;;;5070596;28;20197;-63
2021/05/23 06:55:26;;;;;;;7.17;5.67;;;11.80;99.90;;;;;;5066260;28;20252;-64
2021/05/23 06:57:52;;;;;;;6.97;6.03;;;12.30;99.90;;;;;;5051226;28;20199;-64
2021/05/23 07:00:19;;;;;;;10.87;7.10;;;12.80;99.90;;;;;;5053325;28;20186;-63
2021/05/23 07:02:45;;;;;;;9.73;8.83;;;13.10;99.90;;;;;;5071550;28;20552;-64
2021/05/23 07:05:11;;;;;;;9.30;7.93;;;13.30;99.90;;;;;;5069742;28;20173;-64
2021/05/23 07:07:37;;;;;;;10.77;6.67;;;13.40;99.90;;;;;;5051004;28;20207;-64
2021/05/23 07:10:04;;;;;;;10.13;6.87;;;13.70;99.90;;;;;;5051072;28;20189;-64
2021/05/23 07:12:30;;;;;;;8.40;6.30;;;13.70;99.90;;;;;;5070081;28;20170;-63
2021/05/23 07:14:55;;;;;;;14.90;6.23;;;13.90;99.90;;;;;;5070828;28;20525;-64
2021/05/23 07:17:21;;;;;;;7.20;5.77;;;13.70;99.90;;;;;;5052364;28;20175;-64
2021/05/23 07:19:46;;;;;;;9.93;6.73;;;13.60;99.90;;;;;;5050965;28;20238;-63
2021/05/23 07:22:12;;;;;;;17.70;8.83;;;13.40;99.90;;;;;;5067409;28;20178;-63
2021/05/23 07:24:38;;;;;;;9.50;7.07;;;13.60;99.90;;;;;;5070976;28;20166;-62
2021/05/23 07:27:04;;;;;;;7.67;6.60;;;13.70;99.90;;;;;;5056143;28;20262;-64
2021/05/23 07:29:30;;;;;;;6.47;6.00;;;13.90;99.90;;;;;;5050866;28;20198;-62
2021/05/23 07:31:56;;;;;;;6.17;5.50;;;14.00;99.90;;;;;;5063612;28;20166;-64
2021/05/23 07:34:21;;;;;;;8.67;6.90;;;14.00;99.90;;;;;;5070964;28;20162;-64
2021/05/23 07:36:47;;;;;;;7.30;6.40;;;14.10;99.90;;;;;;5059510;28;20186;-63
2021/05/23 07:39:12;;;;;;;9.37;7.10;;;14.50;99.90;;;;;;5041038;28;20208;-63
2021/05/23 07:41:38;;;;;;;8.80;6.30;;;14.90;99.90;;;;;;5070573;28;20260;-64
2021/05/23 07:44:04;;;;;;;8.67;4.97;;;14.80;99.90;;;;;;5058376;28;20193;-65
2021/05/23 07:46:29;;;;;;;8.70;6.40;;;14.80;99.90;;;;;;5057092;28;20221;-62
2021/05/23 07:48:55;;;;;;;7.73;6.30;;;15.00;99.90;;;;;;5070686;28;20209;-64
2021/05/23 07:51:21;;;;;;;10.33;6.13;;;15.00;99.90;;;;;;5065627;28;20178;-64
2021/05/23 07:53:46;;;;;;;6.57;5.97;;;15.20;99.90;;;;;;5050760;28;20204;-64
2021/05/23 07:56:12;;;;;;;6.23;5.63;;;15.10;99.90;;;;;;5052062;28;20249;-63
2021/05/23 07:58:38;;;;;;;5.83;5.23;;;14.80;99.90;;;;;;5032661;28;20203;-61
2021/05/23 08:01:04;;;;;;;6.43;5.83;;;14.80;99.90;;;;;;5051196;28;20181;-62
2021/05/23 08:03:29;;;;;;;6.33;5.00;;;14.90;99.90;;;;;;5070793;28;20167;-63
2021/05/23 08:05:55;;;;;;;7.03;6.30;;;15.00;99.90;;;;;;5073899;28;20178;-63
2021/05/23 08:08:21;;;;;;;8.23;5.80;;;15.30;99.90;;;;;;5072468;28;20264;-63
2021/05/23 08:10:47;;;;;;;8.87;5.87;;;15.30;99.90;;;;;;5073780;28;20254;-63
2021/05/23 08:13:13;;;;;;;8.70;6.40;;;15.80;99.90;;;;;;5056843;28;20183;-64
2021/05/23 08:15:38;;;;;;;11.70;6.80;;;15.90;99.90;;;;;;5054489;28;20578;-63
2021/05/23 08:18:06;;;;;;;7.77;7.03;;;16.00;99.90;;;;;;5069385;28;20304;-64
2021/05/23 08:20:31;;;;;;;7.73;7.10;;;16.30;99.90;;;;;;5055996;28;20647;-64
2021/05/23 08:22:57;;;;;;;7.70;6.93;;;16.60;99.90;;;;;;5059122;28;20265;-64
2021/05/23 08:25:23;;;;;;;13.23;8.20;;;16.70;99.90;;;;;;5054030;28;20206;-63
2021/05/23 08:27:48;;;;;;;7.17;6.43;;;16.90;99.90;;;;;;5065644;28;20851;-63
2021/05/23 08:30:15;;;;;;;7.53;6.83;;;16.40;99.90;;;;;;5073721;28;20170;-63
2021/05/23 08:32:41;;;;;;;9.60;5.43;;;15.80;99.90;;;;;;5063207;28;20178;-63
2021/05/23 08:35:09;;;;;;;8.80;6.20;;;15.20;99.90;;;;;;5053903;28;20167;-63
2021/05/23 08:37:34;;;;;;;8.37;5.47;;;14.70;99.90;;;;;;5062207;28;20202;-63
2021/05/23 08:40:00;;;;;;;8.90;5.57;;;14.20;99.90;;;;;;5073467;28;20253;-63
2021/05/23 08:42:26;;;;;;;6.20;5.17;;;14.20;99.90;;;;;;5066460;28;20179;-64
2021/05/23 08:44:52;;;;;;;7.47;5.33;;;14.40;99.90;;;;;;5053644;28;20552;-64
2021/05/23 08:47:18;;;;;;;6.73;5.67;;;14.80;99.90;;;;;;5058388;28;20178;-63
2021/05/23 08:49:44;;;;;;;11.40;6.20;;;15.00;99.90;;;;;;5073277;28;20170;-64
2021/05/23 08:52:10;;;;;;;5.80;5.30;;;15.10;99.90;;;;;;5070085;28;20171;-63
2021/05/23 08:54:41;;;;;;;9.43;5.37;;;15.20;99.90;;;;;;5053149;28;20245;-62
2021/05/23 08:57:08;;;;;;;9.07;8.17;;;15.40;99.90;;;;;;5055243;28;20175;-64
2021/05/23 08:59:33;;;;;;;11.13;9.33;;;16.10;99.90;;;;;;5073316;28;20205;-63
2021/05/23 09:02:06;;;;;;;7.73;7.23;;;16.50;99.90;;;;;;5072382;28;20205;-63
2021/05/23 09:04:32;;;;;;;7.60;6.80;;;16.50;99.90;;;;;;5053014;28;20250;-63
2021/05/23 09:07:03;;;;;;;6.90;6.40;;;16.20;99.90;;;;;;5053239;28;20640;-63
2021/05/23 09:09:28;;;;;;;8.77;7.13;;;16.20;99.90;;;;;;5052952;28;20206;-64
2021/05/23 09:12:00;;;;;;;7.63;5.97;;;16.50;99.90;;;;;;5052831;28;20651;-64
2021/05/23 09:14:34;;;;;;;9.37;8.47;;;17.00;99.90;;;;;;5063652;28;20667;-65
2021/05/23 09:17:00;;;;;;;5.53;5.23;;;17.30;99.90;;;;;;5052407;28;20163;-63
2021/05/23 09:19:26;;;;;;;6.03;5.53;;;17.40;99.90;;;;;;5070997;28;20251;-63
2021/05/23 09:21:52;;;;;;;10.47;6.47;;;18.00;99.90;;;;;;5054816;28;20235;-64
2021/05/23 09:24:18;;;;;;;7.93;6.10;;;18.00;99.90;;;;;;5055859;28;20193;-63
2021/05/23 09:26:46;;;;;;;6.80;5.87;;;18.10;99.90;;;;;;5052769;28;20257;-64
2021/05/23 09:29:19;;;;;;;8.73;5.90;;;18.10;99.90;;;;;;5067670;28;20210;-63
2021/05/23 09:31:53;;;;;;;9.27;5.83;;;17.90;99.90;;;;;;5072476;28;20263;-62
2021/05/23 09:34:23;;;;;;;5.60;5.17;;;17.90;99.90;;;;;;5057162;28;20187;-64
2021/05/23 09:36:50;;;;;;;6.23;5.63;;;17.90;99.90;;;;;;5052648;28;20179;-64
2021/05/23 09:39:16;;;;;;;5.40;5.00;;;17.90;99.90;;;;;;5066716;28;20198;-64
2021/05/23 09:41:43;;;;;;;6.33;5.90;;;17.80;99.90;;;;;;5072181;28;20216;-64
2021/05/23 09:44:17;;;;;;;8.60;7.67;;;17.30;99.90;;;;;;5059728;28;20190;-63
2021/05/23 09:46:53;;;;;;;6.50;5.90;;;17.00;99.90;;;;;;5061269;28;20195;-62
2021/05/23 09:49:20;;;;;;;8.87;6.83;;;16.60;99.90;;;;;;5072139;28;20262;-63
2021/05/23 09:51:50;;;;;;;6.60;5.93;;;17.00;99.90;;;;;;5062933;28;20502;-63
2021/05/23 09:54:16;;;;;;;6.53;6.03;;;17.90;99.90;;;;;;5052263;28;20167;-63
2021/05/23 09:56:42;;;;;;;8.80;8.17;;;18.70;99.90;;;;;;5059598;28;20184;-64
2021/05/23 09:59:22;;;;;;;9.97;8.97;;;19.10;99.90;;;;;;5054300;28;20247;-65
2021/05/23 10:01:48;;;;;;;9.10;8.40;;;19.50;99.90;;;;;;5063930;28;20175;-64
2021/05/23 10:04:25;;;;;;;7.63;6.90;;;19.40;99.90;;;;;;5063435;28;20182;-64
2021/05/23 10:06:59;;;;;;;7.23;6.73;;;19.50;99.90;;;;;;5064151;28;20178;-64
2021/05/23 10:09:25;;;;;;;10.23;9.37;;;19.50;99.90;;;;;;5059240;28;20548;-64
2021/05/23 10:11:51;;;;;;;6.70;6.20;;;19.50;99.90;;;;;;5051847;28;20171;-64
2021/05/23 10:14:17;;;;;;;9.80;9.00;;;19.10;99.90;;;;;;5050822;28;20699;-64
2021/05/23 10:16:44;;;;;;;6.77;6.23;;;18.70;99.90;;;;;;5051737;28;20186;-64
2021/05/23 10:19:11;;;;;;;7.30;5.27;;;18.50;99.90;;;;;;5051426;28;20235;-64
2021/05/23 10:21:37;;;;;;;6.10;4.80;;;17.80;99.90;;;;;;5051572;28;20265;-64
2021/05/23 10:24:03;;;;;;;4.93;4.53;;;17.60;99.90;;;;;;5051030;28;20292;-65
2021/05/23 10:26:30;;;;;;;6.03;4.50;;;17.50;99.90;;;;;;5051654;28;20189;-64
2021/05/23 10:28:58;;;;;;;6.57;5.87;;;17.30;99.90;;;;;;5050968;28;20717;-63
2021/05/23 10:31:35;;;;;;;6.67;6.00;;;16.90;99.90;;;;;;5051389;28;20181;-65
2021/05/23 10:34:01;;;;;;;7.23;5.97;;;16.40;99.90;;;;;;5051670;28;20179;-64
2021/05/23 10:36:33;;;;;;;6.17;5.67;;;15.70;99.90;;;;;;5051521;28;20255;-64
2021/05/23 10:39:04;;;;;;;5.63;5.20;;;15.20;99.90;;;;;;5051521;28;20286;-64
2021/05/23 10:41:30;;;;;;;5.90;5.47;;;15.80;99.90;;;;;;5051389;28;20568;-63
2021/05/23 10:44:01;;;;;;;4.73;4.43;;;17.00;99.90;;;;;;5051713;28;20269;-63
2021/05/23 10:46:27;;;;;;;6.33;5.83;;;18.10;99.90;;;;;;5051382;28;20517;-64
2021/05/23 10:48:55;;;;;;;9.50;8.53;;;19.20;99.90;;;;;;5051245;28;20246;-63
2021/05/23 10:51:22;;;;;;;9.07;8.37;;;19.60;99.90;;;;;;5051101;28;20534;-64
2021/05/23 10:53:48;;;;;;;7.83;7.13;;;19.60;99.90;;;;;;5051502;28;20202;-64
2021/05/23 10:56:32;;;;;;;8.03;7.30;;;19.40;99.90;;;;;;5051431;28;20258;-64
2021/05/23 10:59:00;;;;;;;7.30;6.67;;;18.70;99.90;;;;;;5051370;28;20628;-63
2021/05/23 11:01:45;;;;;;;6.93;6.37;;;18.50;99.90;;;;;;5050859;28;20546;-64
2021/05/23 11:04:16;;;;;;;10.60;9.70;;;18.10;99.90;;;;;;5051454;28;20197;-64
2021/05/23 11:06:43;;;;;;;5.10;4.70;;;17.80;99.90;;;;;;5051099;28;20178;-65
2021/05/23 11:09:12;;;;;;;6.47;5.83;;;18.20;99.90;;;;;;5051196;28;20221;-63
2021/05/23 11:11:38;;;;;;;7.77;7.07;;;18.70;99.90;;;;;;5050966;28;20171;-64
2021/05/23 11:14:19;;;;;;;9.70;9.07;;;19.30;99.90;;;;;;5051350;28;20233;-64
2021/05/23 11:16:48;;;;;;;8.10;6.87;;;19.20;99.90;;;;;;5051047;28;20175;-63
2021/05/23 11:19:14;;;;;;;9.13;8.20;;;19.10;99.90;;;;;;5050141;28;20211;-63
2021/05/23 11:21:41;;;;;;;7.53;7.00;;;19.30;99.90;;;;;;5050978;28;20201;-63
2021/05/23 11:24:09;;;;;;;7.03;6.50;;;19.50;99.90;;;;;;5051277;28;20170;-63
2021/05/23 11:26:35;;;;;;;6.47;5.87;;;19.20;99.90;;;;;;5051041;28;20208;-64
2021/05/23 11:29:02;;;;;;;6.53;5.60;;;18.70;99.90;;;;;;5051046;28;20297;-63
2021/05/23 11:31:45;;;;;;;7.97;7.37;;;18.90;99.90;;;;;;5050739;28;20535;-64
2021/05/23 11:34:14;;;;;;;6.73;6.23;;;19.30;99.90;;;;;;5051435;28;20170;-63
2021/05/23 11:36:40;;;;;;;7.25;6.85;;;19.70;99.90;;;;;;5050769;28;20175;-64
2021/05/23 11:39:09;;;;;;;7.85;6.57;;;20.40;99.90;;;;;;5051596;28;20226;-64
2021/05/23 11:41:40;;;;;;;6.05;5.45;;;20.70;99.90;;;;;;5054422;28;20179;-64
2021/05/23 11:44:09;;;;;;;6.53;5.78;;;20.90;99.90;;;;;;5055887;28;20182;-63
2021/05/23 11:46:35;;;;;;;6.13;5.72;;;21.20;99.90;;;;;;5071974;28;20174;-64
2021/05/23 11:49:01;;;;;;;5.10;4.70;;;21.00;99.90;;;;;;5069898;28;20285;-63
2021/05/23 11:51:28;;;;;;;6.53;6.00;;;20.80;99.90;;;;;;5073460;28;20578;-65
2021/05/23 11:53:57;;;;;;;8.33;7.67;;;20.20;99.90;;;;;;5073108;28;20182;-63
2021/05/23 11:56:26;;;;;;;10.40;9.50;;;20.20;99.90;;;;;;5063768;28;20194;-63
2021/05/23 11:58:59;;;;;;;9.00;8.40;;;19.60;99.90;;;;;;5054483;28;20203;-63
2021/05/23 12:01:29;;;;;;;7.30;6.70;;;19.20;99.90;;;;;;5073372;28;20174;-64
2021/05/23 12:04:05;;;;;;;6.10;5.60;;;19.50;99.90;;;;;;5074383;28;20166;-62
2021/05/23 12:06:37;;;;;;;6.30;5.38;;;20.20;99.90;;;;;;5054846;28;20208;-63
2021/05/23 12:09:24;;;;;;;5.70;5.10;;;20.90;99.90;;;;;;5054240;28;20211;-66
2021/05/23 12:11:56;;;;;;;5.97;5.47;;;21.50;99.90;;;;;;5054106;28;20194;-64
2021/05/23 12:14:28;;;;;;;5.40;5.00;;;21.70;99.70;;;;;;5056000;28;20186;-65
2021/05/23 12:17:18;;;;;;;6.28;5.70;;;21.30;99.10;;;;;;5072992;28;20201;-64
2021/05/23 12:19:58;;;;;;;7.13;6.73;;;20.20;99.90;;;;;;5065866;28;20229;-65
2021/05/23 12:22:32;;;;;;;6.20;5.60;;;19.10;99.90;;;;;;5068764;28;20640;-63
2021/05/23 12:25:04;;;;;;;5.00;4.60;;;18.20;99.90;;;;;;5054071;28;20182;-64
2021/05/23 12:27:31;;;;;;;5.77;5.37;;;17.50;99.90;;;;;;5058876;28;20190;-64
2021/05/23 12:30:13;;;;;;;6.60;6.20;;;17.20;99.90;;;;;;5073726;28;20256;-63
2021/05/23 12:32:55;;;;;;;5.57;4.70;;;17.90;99.90;;;;;;5066000;28;20175;-64
2021/05/23 12:35:24;;;;;;;5.63;4.77;;;18.20;99.90;;;;;;5054027;28;20171;-64
2021/05/23 12:37:59;;;;;;;5.63;5.03;;;17.90;99.90;;;;;;5061978;28;20255;-63
2021/05/23 12:40:27;;;;;;;5.90;5.40;;;18.20;99.90;;;;;;5071868;28;20186;-64
2021/05/23 12:43:07;;;;;;;5.70;5.40;;;18.90;99.90;;;;;;5065236;28;20597;-64
2021/05/23 12:45:33;;;;;;;7.70;7.30;;;19.40;99.90;;;;;;5053826;28;20549;-64
2021/05/23 12:47:58;;;;;;;8.93;8.30;;;19.60;99.90;;;;;;5061790;28;20209;-64
2021/05/23 12:50:43;;;;;;;9.27;8.67;;;19.60;99.90;;;;;;5072619;28;20174;-64